createdAt,value
2018-11-03T00:01:18.677Z,96205.00
2018-11-03T00:03:48.168Z,96197.00
2018-11-03T00:06:18.027Z,96197.00
2018-11-03T00:08:47.525Z,96197.00
2018-11-03T00:11:17.034Z,96187.00
2018-11-03T00:13:46.643Z,96190.00
2018-11-03T00:16:16.179Z,96191.00
2018-11-03T00:18:45.626Z,96187.00
2018-11-03T00:21:15.158Z,96195.00
2018-11-03T00:23:44.503Z,96192.00
2018-11-03T00:26:14.000Z,96186.00
2018-11-03T00:28:43.526Z,96196.00
2018-11-03T00:31:13.092Z,96203.00
2018-11-03T00:33:42.973Z,96201.00
2018-11-03T00:36:12.574Z,96200.00
2018-11-03T00:38:42.106Z,96189.00
2018-11-03T00:41:11.489Z,96200.00
2018-11-03T00:43:41.094Z,96196.00
2018-11-03T00:46:10.722Z,96202.00
2018-11-03T00:48:40.148Z,96201.00
2018-11-03T00:51:09.538Z,96198.00
2018-11-03T00:53:38.982Z,96207.00
2018-11-03T00:56:08.458Z,96204.00
2018-11-03T00:58:38.082Z,96213.00
2018-11-03T01:01:07.588Z,96219.00
2018-11-03T01:03:36.986Z,96221.00
2018-11-03T01:06:07.131Z,96211.00
2018-11-03T01:08:36.683Z,96209.00
2018-11-03T01:11:06.851Z,96212.00
2018-11-03T01:13:36.249Z,96201.00
2018-11-03T01:16:06.278Z,96204.00
2018-11-03T01:18:35.841Z,96196.00
2018-11-03T01:21:05.868Z,96210.00
2018-11-03T01:23:35.553Z,96208.00
2018-11-03T01:26:04.993Z,96207.00
2018-11-03T01:28:34.504Z,96215.00
2018-11-03T01:31:03.965Z,96217.00
2018-11-03T01:33:33.857Z,96213.00
2018-11-03T01:36:03.455Z,96207.00
2018-11-03T01:38:32.959Z,96207.00
2018-11-03T01:41:02.629Z,96213.00
2018-11-03T01:43:32.057Z,96219.00
2018-11-03T01:46:01.768Z,96216.00
2018-11-03T01:48:31.223Z,96217.00
2018-11-03T01:51:00.774Z,96214.00
2018-11-03T01:53:31.191Z,96230.00
2018-11-03T01:56:00.688Z,96222.00
2018-11-03T01:58:30.450Z,96236.00
2018-11-03T02:00:59.905Z,96229.00
2018-11-03T02:03:29.444Z,96233.00
2018-11-03T02:05:58.811Z,96227.00
2018-11-03T02:08:28.430Z,96220.00
2018-11-03T02:10:57.793Z,96221.00
2018-11-03T02:13:27.217Z,96206.00
2018-11-03T02:15:56.705Z,96206.00
2018-11-03T02:18:26.208Z,96210.00
2018-11-03T02:20:55.749Z,96210.00
2018-11-03T02:23:25.147Z,96203.00
2018-11-03T02:25:54.467Z,96198.00
2018-11-03T02:28:23.954Z,96197.00
2018-11-03T02:30:53.491Z,96198.00
2018-11-03T02:33:22.929Z,96203.00
2018-11-03T02:35:52.397Z,96201.00
2018-11-03T02:38:22.692Z,96205.00
2018-11-03T02:40:52.195Z,96190.00
2018-11-03T02:43:21.567Z,96189.00
2018-11-03T02:45:51.078Z,96176.00
2018-11-03T02:48:20.473Z,96177.00
2018-11-03T02:50:49.853Z,96166.00
2018-11-03T02:53:19.420Z,96175.00
2018-11-03T02:55:49.603Z,96166.00
2018-11-03T02:58:19.044Z,96157.00
2018-11-03T03:00:48.511Z,96165.00
2018-11-03T03:03:19.081Z,96173.00
2018-11-03T03:05:48.620Z,96168.00
2018-11-03T03:08:17.987Z,96166.00
2018-11-03T03:10:47.487Z,96170.00
2018-11-03T03:13:16.831Z,96177.00
2018-11-03T03:15:46.166Z,96166.00
2018-11-03T03:18:15.546Z,96175.00
2018-11-03T03:20:45.017Z,96167.00
2018-11-03T03:23:14.443Z,96168.00
2018-11-03T03:25:44.560Z,96167.00
2018-11-03T03:28:14.178Z,96165.00
2018-11-03T03:30:43.672Z,96164.00
2018-11-03T03:33:13.109Z,96162.00
2018-11-03T03:35:43.055Z,96157.00
2018-11-03T03:38:12.474Z,96164.00
2018-11-03T03:40:42.074Z,96167.00
2018-11-03T03:43:11.515Z,96172.00
2018-11-03T03:45:41.011Z,96163.00
2018-11-03T03:48:10.621Z,96165.00
2018-11-03T03:50:40.009Z,96165.00
2018-11-03T03:53:09.405Z,96160.00
2018-11-03T03:55:39.485Z,96159.00
2018-11-03T03:58:08.929Z,96155.00
2018-11-03T04:00:38.417Z,96152.00
2018-11-03T04:03:07.883Z,96156.00
2018-11-03T04:05:37.493Z,96150.00
2018-11-03T04:08:07.074Z,96165.00
2018-11-03T04:10:36.546Z,96160.00
2018-11-03T04:13:06.765Z,96161.00
2018-11-03T04:15:36.721Z,96160.00
2018-11-03T04:18:06.585Z,96157.00
2018-11-03T04:20:36.491Z,96160.00
2018-11-03T04:23:06.993Z,96159.00
2018-11-03T04:25:36.834Z,96162.00
2018-11-03T04:28:06.298Z,96152.00
2018-11-03T04:30:35.634Z,96156.00
2018-11-03T04:33:05.054Z,96167.00
2018-11-03T04:35:34.603Z,96162.00
2018-11-03T04:38:04.068Z,96158.00
2018-11-03T04:40:33.422Z,96158.00
2018-11-03T04:43:02.878Z,96159.00
2018-11-03T04:45:32.308Z,96164.00
2018-11-03T04:48:01.755Z,96171.00
2018-11-03T04:50:31.163Z,96167.00
2018-11-03T04:53:00.611Z,96175.00
2018-11-03T04:55:30.551Z,96176.00
2018-11-03T04:58:00.124Z,96178.00
2018-11-03T05:00:29.593Z,96179.00
2018-11-03T05:02:59.047Z,96178.00
2018-11-03T05:05:28.400Z,96187.00
2018-11-03T05:07:58.479Z,96191.00
2018-11-03T05:10:28.073Z,96193.00
2018-11-03T05:12:57.609Z,96192.00
2018-11-03T05:15:27.794Z,96200.00
2018-11-03T05:17:57.330Z,96185.00
2018-11-03T05:20:26.839Z,96184.00
2018-11-03T05:22:56.401Z,96180.00
2018-11-03T05:25:25.938Z,96187.00
2018-11-03T05:27:55.428Z,96190.00
2018-11-03T05:30:25.292Z,96194.00
2018-11-03T05:32:54.745Z,96195.00
2018-11-03T05:35:24.151Z,96194.00
2018-11-03T05:37:53.663Z,96194.00
2018-11-03T05:40:23.288Z,96203.00
2018-11-03T05:42:52.692Z,96203.00
2018-11-03T05:45:22.286Z,96197.00
2018-11-03T05:47:51.872Z,96190.00
2018-11-03T05:50:21.388Z,96202.00
2018-11-03T05:52:50.826Z,96203.00
2018-11-03T05:55:20.440Z,96205.00
2018-11-03T05:57:49.846Z,96202.00
2018-11-03T06:00:19.301Z,96193.00
2018-11-03T06:02:49.710Z,96195.00
2018-11-03T06:05:19.092Z,96201.00
2018-11-03T06:07:48.641Z,96202.00
2018-11-03T06:10:18.165Z,96205.00
2018-11-03T06:12:47.651Z,96202.00
2018-11-03T06:15:17.267Z,96206.00
2018-11-03T06:17:46.768Z,96213.00
2018-11-03T06:20:16.311Z,96217.00
2018-11-03T06:22:45.887Z,96212.00
2018-11-03T06:25:15.283Z,96214.00
2018-11-03T06:27:44.821Z,96214.00
2018-11-03T06:30:14.433Z,96221.00
2018-11-03T06:32:43.999Z,96216.00
2018-11-03T06:35:13.587Z,96217.00
2018-11-03T06:37:43.151Z,96228.00
2018-11-03T06:40:13.469Z,96232.00
2018-11-03T06:42:43.029Z,96238.00
2018-11-03T06:45:12.444Z,96246.00
2018-11-03T06:47:41.970Z,96249.00
2018-11-03T06:50:11.938Z,96246.00
2018-11-03T06:52:42.225Z,96248.00
2018-11-03T06:55:11.862Z,96244.00
2018-11-03T06:57:41.391Z,96246.00
2018-11-03T07:00:11.393Z,96245.00
2018-11-03T07:02:40.912Z,96247.00
2018-11-03T07:05:10.466Z,96248.00
2018-11-03T07:07:40.172Z,96234.00
2018-11-03T07:10:10.704Z,96246.00
2018-11-03T07:12:41.012Z,96237.00
2018-11-03T07:15:10.250Z,96233.00
2018-11-03T07:17:39.735Z,96238.00
2018-11-03T07:20:11.608Z,96241.00
2018-11-03T07:22:42.034Z,96245.00
2018-11-03T07:25:11.931Z,96238.00
2018-11-03T07:27:41.482Z,96240.00
2018-11-03T07:30:12.609Z,96237.00
2018-11-03T07:32:42.259Z,96237.00
2018-11-03T07:35:12.236Z,96238.00
2018-11-03T07:37:42.446Z,96246.00
2018-11-03T07:40:12.014Z,96245.00
2018-11-03T07:42:41.921Z,96252.00
2018-11-03T07:45:11.521Z,96255.00
2018-11-03T07:47:41.197Z,96259.00
2018-11-03T07:50:12.557Z,96262.00
2018-11-03T07:52:42.947Z,96254.00
2018-11-03T07:55:13.677Z,96260.00
2018-11-03T07:57:44.188Z,96256.00
2018-11-03T08:00:15.768Z,96259.00
2018-11-03T08:02:45.477Z,96261.00
2018-11-03T08:05:15.001Z,96256.00
2018-11-03T08:07:45.349Z,96260.00
2018-11-03T08:10:15.322Z,96257.00
2018-11-03T08:12:44.834Z,96253.00
2018-11-03T08:15:14.342Z,96259.00
2018-11-03T08:17:43.713Z,96259.00
2018-11-03T08:20:13.176Z,96255.00
2018-11-03T08:22:43.178Z,96252.00
2018-11-03T08:25:12.687Z,96252.00
2018-11-03T08:27:42.237Z,96252.00
2018-11-03T08:30:13.994Z,96255.00
2018-11-03T08:32:44.071Z,96250.00
2018-11-03T08:35:13.902Z,96244.00
2018-11-03T08:37:43.444Z,96253.00
2018-11-03T08:40:13.404Z,96248.00
2018-11-03T08:42:42.981Z,96250.00
2018-11-03T08:45:12.714Z,96248.00
2018-11-03T08:47:42.124Z,96251.00
2018-11-03T08:50:12.782Z,96248.00
2018-11-03T08:52:42.986Z,96248.00
2018-11-03T08:55:13.647Z,96242.00
2018-11-03T08:57:43.416Z,96244.00
2018-11-03T09:00:15.185Z,96238.00
2018-11-03T09:02:44.773Z,96241.00
2018-11-03T09:05:14.302Z,96236.00
2018-11-03T09:07:43.719Z,96239.00
2018-11-03T09:10:15.054Z,96233.00
2018-11-03T09:12:44.550Z,96222.00
2018-11-03T09:15:14.747Z,96231.00
2018-11-03T09:17:44.569Z,96241.00
2018-11-03T09:20:14.403Z,96237.00
2018-11-03T09:22:44.937Z,96236.00
2018-11-03T09:25:15.451Z,96232.00
2018-11-03T09:27:45.800Z,96229.00
2018-11-03T09:30:17.713Z,96228.00
2018-11-03T09:32:47.217Z,96227.00
2018-11-03T09:35:17.172Z,96229.00
2018-11-03T09:37:46.585Z,96220.00
2018-11-03T09:40:17.121Z,96220.00
2018-11-03T09:42:47.368Z,96229.00
2018-11-03T09:45:16.926Z,96230.00
2018-11-03T09:47:46.375Z,96236.00
2018-11-03T09:50:16.233Z,96227.00
2018-11-03T09:52:45.866Z,96221.00
2018-11-03T09:55:17.096Z,96230.00
2018-11-03T09:57:46.592Z,96218.00
2018-11-03T10:00:17.351Z,96216.00
2018-11-03T10:02:46.844Z,96218.00
2018-11-03T10:05:16.745Z,96214.00
2018-11-03T10:07:46.267Z,96203.00
2018-11-03T10:10:17.807Z,96202.00
2018-11-03T10:12:47.231Z,96199.00
2018-11-03T10:15:18.167Z,96194.00
2018-11-03T10:17:47.805Z,96199.00
2018-11-03T10:20:17.284Z,96206.00
2018-11-03T10:22:47.319Z,96213.00
2018-11-03T10:25:18.043Z,96204.00
2018-11-03T10:27:48.155Z,96214.00
2018-11-03T10:30:18.371Z,96199.00
2018-11-03T10:32:48.189Z,96209.00
2018-11-03T10:35:17.685Z,96204.00
2018-11-03T10:37:47.055Z,96201.00
2018-11-03T10:40:17.721Z,96194.00
2018-11-03T10:42:47.167Z,96193.00
2018-11-03T10:45:17.149Z,96195.00
2018-11-03T10:47:51.142Z,96199.00
2018-11-03T10:50:22.046Z,96197.00
2018-11-03T10:52:51.598Z,96194.00
2018-11-03T10:55:21.138Z,96198.00
2018-11-03T10:57:50.748Z,96203.00
2018-11-03T11:00:26.441Z,96194.00
2018-11-03T11:03:01.336Z,96184.00
2018-11-03T11:05:36.554Z,96192.00
2018-11-03T11:08:11.548Z,96191.00
2018-11-03T11:10:46.196Z,96191.00
2018-11-03T11:13:20.598Z,96183.00
2018-11-03T11:15:51.846Z,96182.00
2018-11-03T11:18:22.316Z,96177.00
2018-11-03T11:20:52.544Z,96167.00
2018-11-03T11:23:22.583Z,96163.00
2018-11-03T11:25:52.150Z,96161.00
2018-11-03T11:28:21.742Z,96158.00
2018-11-03T11:30:51.322Z,96156.00
2018-11-03T11:33:20.732Z,96158.00
2018-11-03T11:35:50.365Z,96156.00
2018-11-03T11:38:19.997Z,96157.00
2018-11-03T11:40:49.589Z,96151.00
2018-11-03T11:43:19.262Z,96157.00
2018-11-03T11:45:49.045Z,96157.00
2018-11-03T11:48:18.505Z,96152.00
2018-11-03T11:50:48.053Z,96160.00
2018-11-03T11:53:17.445Z,96162.00
2018-11-03T11:55:47.033Z,96156.00
2018-11-03T11:58:16.506Z,96154.00
2018-11-03T12:00:46.022Z,96153.00
2018-11-03T12:03:15.470Z,96150.00
2018-11-03T12:05:45.009Z,96146.00
2018-11-03T12:08:14.620Z,96144.00
2018-11-03T12:10:45.921Z,96150.00
2018-11-03T12:13:15.381Z,96149.00
2018-11-03T12:15:45.010Z,96147.00
2018-11-03T12:18:14.568Z,96140.00
2018-11-03T12:20:44.645Z,96130.00
2018-11-03T12:23:14.104Z,96133.00
2018-11-03T12:25:44.430Z,96130.00
2018-11-03T12:28:21.414Z,96119.00
2018-11-03T12:30:51.997Z,96126.00
2018-11-03T12:33:21.602Z,96115.00
2018-11-03T12:35:52.562Z,96118.00
2018-11-03T12:38:22.253Z,96121.00
2018-11-03T12:40:52.652Z,96117.00
2018-11-03T12:43:23.100Z,96122.00
2018-11-03T12:45:53.987Z,96116.00
2018-11-03T12:48:24.900Z,96117.00
2018-11-03T12:50:54.280Z,96109.00
2018-11-03T12:53:23.765Z,96106.00
2018-11-03T12:55:53.258Z,96100.00
2018-11-03T12:58:22.965Z,96104.00
2018-11-03T13:00:52.734Z,96101.00
2018-11-03T13:03:22.700Z,96094.00
2018-11-03T13:05:52.299Z,96094.00
2018-11-03T13:08:22.201Z,96102.00
2018-11-03T13:10:51.990Z,96094.00
2018-11-03T13:13:21.506Z,96106.00
2018-11-03T13:15:51.642Z,96089.00
2018-11-03T13:18:21.092Z,96097.00
2018-11-03T13:20:50.550Z,96088.00
2018-11-03T13:23:20.116Z,96089.00
2018-11-03T13:25:49.753Z,96082.00
2018-11-03T13:28:19.718Z,96088.00
2018-11-03T13:30:49.436Z,96087.00
2018-11-03T13:33:19.124Z,96086.00
2018-11-03T13:35:49.024Z,96086.00
2018-11-03T13:38:18.508Z,96074.00
2018-11-03T13:40:48.873Z,96079.00
2018-11-03T13:43:18.409Z,96075.00
2018-11-03T13:45:47.970Z,96077.00
2018-11-03T13:48:17.472Z,96075.00
2018-11-03T13:50:47.444Z,96075.00
2018-11-03T13:53:16.923Z,96072.00
2018-11-03T13:55:47.449Z,96070.00
2018-11-03T13:58:16.903Z,96069.00
2018-11-03T14:00:46.386Z,96057.00
2018-11-03T14:03:15.772Z,96057.00
2018-11-03T14:05:46.028Z,96057.00
2018-11-03T14:08:15.473Z,96050.00
2018-11-03T14:10:45.074Z,96062.00
2018-11-03T14:13:14.865Z,96067.00
2018-11-03T14:15:44.696Z,96064.00
2018-11-03T14:18:14.326Z,96064.00
2018-11-03T14:20:43.942Z,96069.00
2018-11-03T14:23:13.473Z,96062.00
2018-11-03T14:25:43.044Z,96062.00
2018-11-03T14:28:12.633Z,96061.00
2018-11-03T14:30:42.216Z,96055.00
2018-11-03T14:33:11.761Z,96054.00
2018-11-03T14:35:41.313Z,96045.00
2018-11-03T14:38:11.436Z,96048.00
2018-11-03T14:40:40.841Z,96050.00
2018-11-03T14:43:10.496Z,96038.00
2018-11-03T14:45:40.129Z,96053.00
2018-11-03T14:48:09.624Z,96051.00
2018-11-03T14:50:39.332Z,96052.00
2018-11-03T14:53:08.744Z,96044.00
2018-11-03T14:55:38.337Z,96048.00
2018-11-03T14:58:08.134Z,96034.00
2018-11-03T15:00:38.070Z,96039.00
2018-11-03T15:03:08.290Z,96029.00
2018-11-03T15:05:37.791Z,96031.00
2018-11-03T15:08:07.470Z,96031.00
2018-11-03T15:10:36.962Z,96021.00
2018-11-03T15:13:06.733Z,96010.00
2018-11-03T15:15:36.318Z,96020.00
2018-11-03T15:18:05.976Z,96022.00
2018-11-03T15:20:35.414Z,96014.00
2018-11-03T15:23:04.873Z,96019.00
2018-11-03T15:25:34.439Z,96012.00
2018-11-03T15:28:04.083Z,96011.00
2018-11-03T15:30:33.587Z,96011.00
2018-11-03T15:33:03.010Z,96010.00
2018-11-03T15:35:33.701Z,96001.00
2018-11-03T15:38:03.297Z,95999.00
2018-11-03T15:40:32.931Z,96009.00
2018-11-03T15:43:02.336Z,95998.00
2018-11-03T15:45:32.730Z,96003.00
2018-11-03T15:48:02.228Z,95999.00
2018-11-03T15:50:31.732Z,96009.00
2018-11-03T15:53:01.318Z,96010.00
2018-11-03T15:55:30.794Z,96010.00
2018-11-03T15:58:00.266Z,96008.00
2018-11-03T16:00:30.058Z,96007.00
2018-11-03T16:02:59.606Z,95988.00
2018-11-03T16:05:29.135Z,96010.00
2018-11-03T16:07:58.576Z,96007.00
2018-11-03T16:10:28.092Z,96024.00
2018-11-03T16:12:58.146Z,96027.00
2018-11-03T16:15:27.574Z,96025.00
2018-11-03T16:17:57.106Z,96022.00
2018-11-03T16:20:26.623Z,96016.00
2018-11-03T16:22:56.169Z,96023.00
2018-11-03T16:25:25.745Z,96023.00
2018-11-03T16:27:55.154Z,96025.00
2018-11-03T16:30:24.776Z,96023.00
2018-11-03T16:32:54.443Z,96027.00
2018-11-03T16:35:23.881Z,96022.00
2018-11-03T16:37:53.565Z,96018.00
2018-11-03T16:40:23.334Z,96030.00
2018-11-03T16:42:53.217Z,96025.00
2018-11-03T16:45:23.243Z,96029.00
2018-11-03T16:47:53.063Z,96031.00
2018-11-03T16:50:22.665Z,96029.00
2018-11-03T16:52:52.321Z,96034.00
2018-11-03T16:55:22.960Z,96025.00
2018-11-03T16:57:52.521Z,96022.00
2018-11-03T17:00:21.998Z,96026.00
2018-11-03T17:02:51.951Z,96026.00
2018-11-03T17:05:22.649Z,96028.00
2018-11-03T17:07:52.241Z,96017.00
2018-11-03T17:10:21.886Z,96011.00
2018-11-03T17:12:51.484Z,96021.00
2018-11-03T17:15:21.383Z,96024.00
2018-11-03T17:17:50.795Z,96019.00
2018-11-03T17:20:20.222Z,96016.00
2018-11-03T17:22:49.775Z,96014.00
2018-11-03T17:25:19.366Z,96006.00
2018-11-03T17:27:48.604Z,96015.00
2018-11-03T17:30:18.137Z,96002.00
2018-11-03T17:32:48.336Z,95995.00
2018-11-03T17:35:17.806Z,95997.00
2018-11-03T17:37:47.444Z,95995.00
2018-11-03T17:40:17.506Z,95999.00
2018-11-03T17:42:46.964Z,95988.00
2018-11-03T17:45:16.876Z,95987.00
2018-11-03T17:47:46.401Z,95987.00
2018-11-03T17:50:15.949Z,95984.00
2018-11-03T17:52:45.442Z,95983.00
2018-11-03T17:55:14.989Z,95986.00
2018-11-03T17:57:44.595Z,95987.00
2018-11-03T18:00:16.133Z,95986.00
2018-11-03T18:02:47.631Z,95991.00
2018-11-03T18:05:17.765Z,96002.00
2018-11-03T18:07:47.343Z,96002.00
2018-11-03T18:10:16.727Z,96000.00
2018-11-03T18:12:46.923Z,95998.00
2018-11-03T18:15:16.497Z,95989.00
2018-11-03T18:17:46.023Z,95989.00
2018-11-03T18:20:15.539Z,95989.00
2018-11-03T18:22:45.097Z,95987.00
2018-11-03T18:25:14.641Z,95974.00
2018-11-03T18:27:44.332Z,95981.00
2018-11-03T18:30:14.250Z,95974.00
2018-11-03T18:32:43.722Z,95971.00
2018-11-03T18:35:13.673Z,95970.00
2018-11-03T18:37:43.240Z,95959.00
2018-11-03T18:40:13.030Z,95963.00
2018-11-03T18:42:42.705Z,95962.00
2018-11-03T18:45:12.178Z,95964.00
2018-11-03T18:47:42.603Z,95965.00
2018-11-03T18:50:14.148Z,95964.00
2018-11-03T18:52:43.915Z,95963.00
2018-11-03T18:55:13.854Z,95970.00
2018-11-03T18:57:43.545Z,95970.00
2018-11-03T19:00:13.014Z,95977.00
2018-11-03T19:02:42.971Z,95971.00
2018-11-03T19:05:12.583Z,95984.00
2018-11-03T19:07:42.025Z,95975.00
2018-11-03T19:10:11.943Z,95974.00
2018-11-03T19:12:41.537Z,95959.00
2018-11-03T19:15:12.659Z,95960.00
2018-11-03T19:17:42.274Z,95955.00
2018-11-03T19:20:14.473Z,95951.00
2018-11-03T19:22:44.690Z,95944.00
2018-11-03T19:25:14.839Z,95940.00
2018-11-03T19:27:44.479Z,95931.00
2018-11-03T19:30:14.924Z,95935.00
2018-11-03T19:32:45.535Z,95934.00
2018-11-03T19:35:15.305Z,95940.00
2018-11-03T19:37:44.717Z,95943.00
2018-11-03T19:40:14.743Z,95932.00
2018-11-03T19:42:44.349Z,95928.00
2018-11-03T19:45:15.783Z,95937.00
2018-11-03T19:47:46.025Z,95939.00
2018-11-03T19:50:15.953Z,95939.00
2018-11-03T19:52:45.513Z,95933.00
2018-11-03T19:55:16.181Z,95935.00
2018-11-03T19:57:45.782Z,95929.00
2018-11-03T20:02:47.480Z,95930.00
2018-11-03T20:05:16.881Z,95933.00
2018-11-03T20:07:48.062Z,95933.00
2018-11-03T20:10:18.863Z,95938.00
2018-11-03T20:12:49.446Z,95936.00
2018-11-03T20:15:20.368Z,95936.00
2018-11-03T20:17:52.116Z,95952.00
2018-11-03T20:20:22.810Z,95945.00
2018-11-03T20:22:52.538Z,95947.00
2018-11-03T20:25:22.959Z,95932.00
2018-11-03T20:27:52.985Z,95927.00
2018-11-03T20:30:23.891Z,95929.00
2018-11-03T20:32:58.397Z,95931.00
2018-11-03T20:38:01.495Z,95938.00
2018-11-03T20:40:34.929Z,95933.00
2018-11-03T20:43:05.489Z,95922.00
2018-11-03T20:45:41.885Z,95931.00
2018-11-03T20:48:12.637Z,95931.00
2018-11-03T20:50:46.437Z,95931.00
2018-11-03T20:53:16.155Z,95922.00
2018-11-03T20:55:46.721Z,95925.00
2018-11-03T20:58:16.640Z,95918.00
2018-11-03T21:00:46.225Z,95919.00
2018-11-03T21:03:15.766Z,95921.00
2018-11-03T21:05:45.372Z,95909.00
2018-11-03T21:08:15.508Z,95917.00
2018-11-03T21:10:45.064Z,95912.00
2018-11-03T21:13:14.605Z,95916.00
2018-11-03T21:15:44.835Z,95898.00
2018-11-03T21:18:14.632Z,95906.00
2018-11-03T21:20:44.098Z,95897.00
2018-11-03T21:23:13.815Z,95897.00
2018-11-03T21:25:43.664Z,95895.00
2018-11-03T21:28:13.829Z,95898.00
2018-11-03T21:30:43.280Z,95900.00
2018-11-03T21:33:13.108Z,95888.00
2018-11-03T21:35:42.431Z,95890.00
2018-11-03T21:38:12.565Z,95882.00
2018-11-03T21:40:42.887Z,95886.00
2018-11-03T21:43:13.932Z,95891.00
2018-11-03T21:45:44.272Z,95886.00
2018-11-03T21:48:14.669Z,95883.00
2018-11-03T21:50:45.140Z,95882.00
2018-11-03T21:53:14.772Z,95877.00
2018-11-03T21:55:45.201Z,95879.00
2018-11-03T21:58:15.482Z,95868.00
2018-11-03T22:00:49.263Z,95870.00
2018-11-03T22:03:18.809Z,95863.00
2018-11-03T22:05:48.407Z,95867.00
2018-11-03T22:08:18.036Z,95861.00
2018-11-03T22:10:47.595Z,95853.00
2018-11-03T22:13:17.436Z,95859.00
2018-11-03T22:15:46.963Z,95847.00
2018-11-03T22:18:16.462Z,95856.00
2018-11-03T22:20:46.018Z,95848.00
2018-11-03T22:23:15.540Z,95852.00
2018-11-03T22:25:45.096Z,95853.00
2018-11-03T22:28:14.681Z,95850.00
2018-11-03T22:30:44.389Z,95851.00
2018-11-03T22:33:14.653Z,95847.00
2018-11-03T22:35:44.225Z,95837.00
2018-11-03T22:38:13.895Z,95842.00
2018-11-03T22:40:47.772Z,95839.00
2018-11-03T22:43:17.373Z,95845.00
2018-11-03T22:45:47.020Z,95840.00
2018-11-03T22:48:16.588Z,95837.00
2018-11-03T22:50:46.177Z,95843.00
2018-11-03T22:53:16.745Z,95856.00
2018-11-03T22:55:46.308Z,95836.00
2018-11-03T22:58:16.021Z,95838.00
2018-11-03T23:00:50.772Z,95825.00
2018-11-03T23:03:20.355Z,95826.00
2018-11-03T23:05:49.996Z,95829.00
2018-11-03T23:08:19.596Z,95820.00
2018-11-03T23:10:49.315Z,95804.00
2018-11-03T23:13:19.334Z,95802.00
2018-11-03T23:15:49.544Z,95807.00
2018-11-03T23:18:19.116Z,95812.00
2018-11-03T23:20:48.622Z,95803.00
2018-11-03T23:23:18.160Z,95803.00
2018-11-03T23:25:47.959Z,95794.00
2018-11-03T23:28:17.603Z,95806.00
2018-11-03T23:30:47.063Z,95795.00
2018-11-03T23:33:17.522Z,95782.00
2018-11-03T23:35:47.065Z,95785.00
2018-11-03T23:38:16.574Z,95776.00
2018-11-03T23:40:46.112Z,95782.00
2018-11-03T23:43:15.680Z,95785.00
2018-11-03T23:45:45.350Z,95781.00
2018-11-03T23:48:14.936Z,95780.00
2018-11-03T23:50:44.912Z,95777.00
2018-11-03T23:53:18.897Z,95784.00
2018-11-03T23:55:48.573Z,95782.00
2018-11-03T23:58:18.958Z,95772.00
